createdAt,value
2023-05-12T00:02:12.526Z,23.58
2023-05-12T00:04:40.786Z,23.14
2023-05-12T00:07:08.984Z,23.01
2023-05-12T00:09:37.073Z,22.97
2023-05-12T00:12:05.660Z,24.04
2023-05-12T00:14:33.511Z,23.76
2023-05-12T00:17:01.447Z,23.51
2023-05-12T00:19:30.861Z,23.71
2023-05-12T00:21:58.712Z,23.37
2023-05-12T00:24:26.822Z,24.19
2023-05-12T00:26:55.093Z,24.11
2023-05-12T00:29:22.917Z,24.09
2023-05-12T00:31:50.838Z,24.36
2023-05-12T00:34:18.797Z,24.35
2023-05-12T00:36:48.012Z,24.37
2023-05-12T00:39:16.173Z,24.47
2023-05-12T00:41:44.525Z,23.98
2023-05-12T00:44:12.490Z,23.66
2023-05-12T00:46:40.719Z,24.35
2023-05-12T00:49:08.874Z,24.68
2023-05-12T00:51:37.230Z,24.43
2023-05-12T00:54:06.957Z,24.17
2023-05-12T00:56:39.363Z,24.06
2023-05-12T00:59:09.275Z,24.09
2023-05-12T01:01:41.144Z,24.08
2023-05-12T01:04:09.591Z,23.12
2023-05-12T01:06:44.519Z,22.82
2023-05-12T01:09:15.121Z,22.63
2023-05-12T01:11:43.254Z,22.97
2023-05-12T01:14:11.204Z,22.71
2023-05-12T01:16:43.808Z,22.66
2023-05-12T01:19:20.677Z,22.98
2023-05-12T01:21:48.692Z,23.35
2023-05-12T01:24:21.751Z,23.03
2023-05-12T01:26:51.229Z,24.20
2023-05-12T01:29:20.021Z,23.86
2023-05-12T01:31:49.326Z,23.83
2023-05-12T01:34:18.633Z,23.46
2023-05-12T01:36:49.899Z,24.33
2023-05-12T01:39:17.984Z,23.34
2023-05-12T01:41:45.971Z,23.40
2023-05-12T01:44:15.567Z,23.10
2023-05-12T01:46:43.574Z,23.54
2023-05-12T01:49:12.694Z,23.13
2023-05-12T01:51:40.875Z,22.92
2023-05-12T01:54:08.823Z,23.23
2023-05-12T01:56:39.344Z,23.41
2023-05-12T01:59:07.650Z,24.08
2023-05-12T02:01:37.585Z,23.28
2023-05-12T02:04:08.844Z,22.43
2023-05-12T02:06:38.327Z,23.44
2023-05-12T02:09:06.685Z,23.84
2023-05-12T02:11:34.653Z,23.94
2023-05-12T02:14:03.124Z,23.71
2023-05-12T02:16:34.935Z,23.04
2023-05-12T02:19:04.578Z,23.57
2023-05-12T02:21:33.602Z,24.22
2023-05-12T02:24:01.870Z,23.81
2023-05-12T02:26:29.949Z,24.12
2023-05-12T02:28:57.889Z,23.54
2023-05-12T02:31:26.052Z,23.45
2023-05-12T02:33:54.078Z,23.47
2023-05-12T02:36:23.476Z,22.68
2023-05-12T02:38:51.498Z,22.71
2023-05-12T02:41:19.609Z,22.61
2023-05-12T02:43:47.817Z,22.69
2023-05-12T02:46:16.214Z,21.77
2023-05-12T02:48:44.430Z,21.65
2023-05-12T02:51:12.614Z,21.51
2023-05-12T02:53:42.210Z,22.17
2023-05-12T02:56:10.207Z,22.65
2023-05-12T02:58:38.066Z,23.74
2023-05-12T03:01:11.135Z,23.90
2023-05-12T03:03:40.498Z,23.54
2023-05-12T03:06:09.565Z,23.12
2023-05-12T03:08:37.858Z,23.68
2023-05-12T03:11:07.455Z,24.27
2023-05-12T03:13:35.343Z,23.83
2023-05-12T03:16:03.376Z,23.58
2023-05-12T03:18:31.691Z,22.69
2023-05-12T03:20:59.762Z,22.55
2023-05-12T03:23:27.937Z,22.67
2023-05-12T03:25:56.578Z,23.07
2023-05-12T03:28:26.193Z,23.05
2023-05-12T03:30:55.011Z,22.98
2023-05-12T03:33:25.961Z,22.94
2023-05-12T03:35:54.771Z,22.90
2023-05-12T03:38:24.450Z,22.98
2023-05-12T03:40:53.321Z,23.21
2023-05-12T03:43:21.969Z,23.39
2023-05-12T03:45:51.473Z,23.16
2023-05-12T03:48:19.406Z,22.49
2023-05-12T03:50:47.380Z,23.30
2023-05-12T03:53:16.126Z,23.57
2023-05-12T03:55:43.975Z,23.38
2023-05-12T03:58:11.867Z,23.52
2023-05-12T04:00:39.777Z,24.12
2023-05-12T04:03:09.471Z,23.13
2023-05-12T04:05:39.455Z,21.96
2023-05-12T04:08:07.354Z,22.03
2023-05-12T04:10:40.046Z,22.50
2023-05-12T04:13:08.349Z,22.96
2023-05-12T04:15:36.517Z,23.82
2023-05-12T04:18:05.039Z,23.45
2023-05-12T04:20:34.256Z,23.95
2023-05-12T04:23:02.445Z,23.50
2023-05-12T04:25:30.493Z,23.71
2023-05-12T04:27:58.388Z,23.62
2023-05-12T04:30:26.341Z,23.71
2023-05-12T04:32:54.561Z,24.49
2023-05-12T04:35:23.249Z,24.66
2023-05-12T04:37:52.828Z,23.90
2023-05-12T04:40:21.259Z,24.77
2023-05-12T04:42:49.619Z,23.55
2023-05-12T04:45:18.521Z,23.33
2023-05-12T04:47:47.019Z,22.99
2023-05-12T04:50:15.305Z,23.21
2023-05-12T04:52:43.227Z,22.93
2023-05-12T04:55:12.767Z,23.66
2023-05-12T04:57:41.613Z,24.36
2023-05-12T05:00:12.564Z,24.93
2023-05-12T05:02:41.406Z,23.43
2023-05-12T05:05:10.851Z,23.75
2023-05-12T05:07:39.076Z,24.04
2023-05-12T05:10:08.427Z,23.87
2023-05-12T05:12:37.882Z,24.99
2023-05-12T05:15:07.595Z,25.13
2023-05-12T05:17:35.774Z,24.48
2023-05-12T05:20:09.735Z,23.99
2023-05-12T05:22:40.879Z,23.74
2023-05-12T05:25:10.332Z,24.63
2023-05-12T05:27:39.906Z,25.00
2023-05-12T05:30:09.232Z,24.50
2023-05-12T05:32:40.320Z,24.40
2023-05-12T05:35:08.967Z,24.98
2023-05-12T05:37:40.880Z,24.39
2023-05-12T05:40:10.306Z,25.38
2023-05-12T05:42:40.109Z,25.44
2023-05-12T05:45:09.447Z,25.11
2023-05-12T05:47:37.889Z,25.10
2023-05-12T05:50:08.856Z,25.77
2023-05-12T05:52:39.427Z,25.84
2023-05-12T05:55:08.696Z,25.97
2023-05-12T05:57:37.890Z,26.41
2023-05-12T06:00:10.003Z,26.73
2023-05-12T06:02:51.517Z,25.70
2023-05-12T06:05:23.777Z,25.80
2023-05-12T06:07:52.248Z,26.61
2023-05-12T06:10:22.762Z,26.15
2023-05-12T06:12:51.428Z,25.45
2023-05-12T06:15:20.989Z,25.33
2023-05-12T06:17:50.838Z,25.10
2023-05-12T06:20:19.019Z,25.15
2023-05-12T06:22:47.275Z,26.15
2023-05-12T06:25:15.531Z,25.87
2023-05-12T06:27:43.450Z,25.47
2023-05-12T06:30:16.006Z,25.80
2023-05-12T06:32:46.242Z,25.33
2023-05-12T06:35:14.181Z,25.63
2023-05-12T06:37:44.761Z,24.85
2023-05-12T06:40:15.726Z,23.85
2023-05-12T06:42:43.741Z,24.47
2023-05-12T06:45:13.003Z,24.97
2023-05-12T06:47:45.257Z,24.85
2023-05-12T06:50:13.348Z,24.91
2023-05-12T06:52:41.954Z,23.74
2023-05-12T06:55:10.682Z,23.77
2023-05-12T06:57:38.657Z,23.84
2023-05-12T07:00:08.197Z,24.60
2023-05-12T07:02:36.091Z,25.16
2023-05-12T07:05:05.771Z,24.61
2023-05-12T07:07:33.641Z,26.35
2023-05-12T07:10:01.734Z,25.83
2023-05-12T07:12:29.663Z,25.79
2023-05-12T07:14:57.573Z,26.28
2023-05-12T07:17:25.958Z,25.64
2023-05-12T07:19:53.995Z,25.51
2023-05-12T07:22:24.557Z,25.54
2023-05-12T07:24:52.773Z,26.83
2023-05-12T07:27:21.270Z,25.59
2023-05-12T07:29:49.462Z,26.28
2023-05-12T07:32:17.938Z,26.56
2023-05-12T07:34:46.183Z,26.49
2023-05-12T07:37:14.325Z,26.66
2023-05-12T07:39:43.768Z,25.75
2023-05-12T07:42:11.802Z,26.14
2023-05-12T07:44:39.884Z,27.63
2023-05-12T07:47:08.273Z,26.84
2023-05-12T07:49:36.322Z,27.57
2023-05-12T07:52:04.594Z,27.00
2023-05-12T07:54:32.747Z,26.90
2023-05-12T07:57:02.167Z,27.70
2023-05-12T07:59:30.047Z,26.62
2023-05-12T08:01:58.807Z,26.87
2023-05-12T08:04:27.207Z,26.92
2023-05-12T08:06:55.387Z,27.28
2023-05-12T08:09:23.525Z,26.54
2023-05-12T08:11:53.345Z,26.33
2023-05-12T08:14:23.139Z,27.63
2023-05-12T08:16:51.226Z,28.93
2023-05-12T08:19:19.346Z,27.88
2023-05-12T08:21:47.209Z,27.49
2023-05-12T08:24:18.007Z,27.77
2023-05-12T08:26:47.832Z,28.76
2023-05-12T08:29:16.177Z,29.23
2023-05-12T08:31:45.688Z,27.66
2023-05-12T08:34:13.754Z,27.17
2023-05-12T08:36:42.375Z,26.62
2023-05-12T08:39:11.271Z,27.40
2023-05-12T08:41:45.916Z,28.01
2023-05-12T08:44:15.272Z,28.49
2023-05-12T08:46:45.323Z,29.03
2023-05-12T08:49:18.000Z,28.69
2023-05-12T08:51:57.349Z,28.31
2023-05-12T08:54:28.551Z,28.27
2023-05-12T08:59:29.718Z,28.48
2023-05-12T09:02:04.508Z,28.62
2023-05-12T09:04:33.306Z,27.33
2023-05-12T09:07:01.704Z,27.54
2023-05-12T09:09:32.739Z,28.36
2023-05-12T09:12:02.974Z,29.02
2023-05-12T09:14:36.159Z,28.48
2023-05-12T09:17:06.804Z,28.05
2023-05-12T09:19:37.938Z,29.33
2023-05-12T09:22:06.135Z,27.84
2023-05-12T09:24:37.806Z,27.31
2023-05-12T09:27:07.102Z,28.01
2023-05-12T09:29:42.514Z,27.85
2023-05-12T09:32:17.793Z,26.70
2023-05-12T09:34:46.296Z,27.21
2023-05-12T09:37:15.683Z,27.44
2023-05-12T09:39:45.753Z,27.07
2023-05-12T09:42:15.019Z,27.00
2023-05-12T09:44:43.373Z,27.25
2023-05-12T09:47:11.518Z,27.86
2023-05-12T09:49:49.166Z,27.57
2023-05-12T09:52:17.684Z,27.49
2023-05-12T09:54:45.905Z,28.07
2023-05-12T09:57:17.300Z,27.75
2023-05-12T09:59:47.700Z,27.67
2023-05-12T10:02:17.114Z,27.53
2023-05-12T10:04:53.859Z,28.07
2023-05-12T10:07:24.040Z,28.66
2023-05-12T10:09:52.863Z,28.12
2023-05-12T10:12:21.098Z,28.30
2023-05-12T10:14:50.310Z,28.20
2023-05-12T10:17:21.171Z,28.51
2023-05-12T10:19:52.483Z,27.03
2023-05-12T10:22:21.261Z,27.55
2023-05-12T10:24:50.838Z,28.11
2023-05-12T10:27:20.397Z,28.29
2023-05-12T10:29:50.728Z,28.26
2023-05-12T10:32:19.651Z,27.60
2023-05-12T10:34:48.481Z,29.11
2023-05-12T10:37:18.732Z,28.75
2023-05-12T10:39:54.256Z,30.14
2023-05-12T10:42:26.270Z,27.83
2023-05-12T10:44:55.710Z,28.94
2023-05-12T10:47:27.085Z,28.98
2023-05-12T10:49:59.132Z,28.56
2023-05-12T10:52:28.880Z,28.83
2023-05-12T10:55:02.244Z,28.85
2023-05-12T10:57:31.381Z,31.03
2023-05-12T11:00:02.885Z,30.03
2023-05-12T11:02:34.464Z,28.44
2023-05-12T11:05:06.793Z,29.54
2023-05-12T11:07:37.808Z,30.24
2023-05-12T11:10:08.057Z,29.13
2023-05-12T11:12:37.533Z,29.72
2023-05-12T11:15:08.366Z,29.84
2023-05-12T11:17:40.662Z,29.36
2023-05-12T11:20:10.917Z,30.58
2023-05-12T11:22:42.977Z,29.37
2023-05-12T11:25:12.529Z,29.18
2023-05-12T11:27:45.021Z,28.61
2023-05-12T11:30:13.949Z,30.23
2023-05-12T11:32:42.253Z,30.29
2023-05-12T11:35:12.081Z,29.52
2023-05-12T11:37:42.486Z,29.90
2023-05-12T11:40:17.967Z,30.09
2023-05-12T11:42:48.864Z,29.58
2023-05-12T11:45:22.490Z,29.61
2023-05-12T11:47:50.892Z,29.06
2023-05-12T11:50:24.068Z,29.97
2023-05-12T11:52:54.670Z,29.62
2023-05-12T11:55:26.940Z,29.48
2023-05-12T11:58:00.427Z,29.64
2023-05-12T12:00:30.458Z,30.00
2023-05-12T12:03:12.790Z,30.14
2023-05-12T12:05:42.491Z,30.15
2023-05-12T12:08:14.427Z,29.84
2023-05-12T12:10:45.775Z,30.19
2023-05-12T12:13:14.271Z,31.48
2023-05-12T12:15:42.253Z,31.21
2023-05-12T12:18:10.242Z,30.36
2023-05-12T12:20:38.477Z,32.28
2023-05-12T12:23:06.668Z,30.76
2023-05-12T12:25:37.330Z,30.45
2023-05-12T12:28:05.952Z,29.92
2023-05-12T12:30:34.683Z,29.48
2023-05-12T12:33:03.005Z,29.43
2023-05-12T12:35:34.015Z,28.83
2023-05-12T12:38:02.390Z,29.74
2023-05-12T12:40:31.885Z,30.68
2023-05-12T12:43:01.207Z,30.97
2023-05-12T12:45:29.176Z,29.89
2023-05-12T12:47:57.544Z,30.33
2023-05-12T12:50:27.312Z,28.76
2023-05-12T12:52:55.526Z,30.49
2023-05-12T12:55:24.272Z,31.24
2023-05-12T12:57:52.679Z,30.30
2023-05-12T13:00:24.331Z,30.16
2023-05-12T13:02:53.082Z,31.48
2023-05-12T13:05:21.913Z,31.88
2023-05-12T13:07:51.539Z,31.55
2023-05-12T13:10:20.027Z,30.76
2023-05-12T13:12:48.365Z,30.80
2023-05-12T13:15:19.358Z,31.41
2023-05-12T13:17:49.466Z,31.22
2023-05-12T13:20:17.680Z,30.76
2023-05-12T13:22:46.373Z,31.97
2023-05-12T13:25:14.793Z,30.79
2023-05-12T13:27:42.954Z,29.78
2023-05-12T13:30:13.470Z,28.86
2023-05-12T13:32:45.202Z,29.50
2023-05-12T13:35:14.700Z,29.41
2023-05-12T13:37:42.896Z,29.49
2023-05-12T13:40:11.924Z,28.84
2023-05-12T13:42:39.919Z,29.57
2023-05-12T13:45:09.703Z,29.34
2023-05-12T13:47:37.861Z,29.47
2023-05-12T13:50:07.160Z,29.51
2023-05-12T13:52:36.674Z,29.82
2023-05-12T13:55:05.424Z,30.87
2023-05-12T13:57:33.940Z,30.92
2023-05-12T14:00:03.224Z,31.15
2023-05-12T14:02:31.447Z,32.14
2023-05-12T14:04:59.672Z,31.83
2023-05-12T14:07:29.089Z,31.16
2023-05-12T14:09:58.534Z,30.57
2023-05-12T14:12:26.894Z,30.97
2023-05-12T14:14:59.942Z,30.36
2023-05-12T14:17:36.795Z,29.42
2023-05-12T14:20:06.586Z,30.18
2023-05-12T14:22:35.439Z,30.65
2023-05-12T14:25:06.065Z,30.44
2023-05-12T14:27:34.756Z,30.86
2023-05-12T14:30:06.318Z,32.47
2023-05-12T14:32:34.795Z,31.57
2023-05-12T14:35:04.455Z,31.12
2023-05-12T14:37:33.245Z,31.10
2023-05-12T14:40:01.563Z,30.15
2023-05-12T14:42:32.316Z,29.93
2023-05-12T14:45:01.045Z,29.95
2023-05-12T14:47:29.142Z,31.20
2023-05-12T14:49:57.479Z,31.65
2023-05-12T14:52:25.492Z,33.72
2023-05-12T14:54:53.587Z,36.01
2023-05-12T14:57:21.711Z,33.63
2023-05-12T14:59:53.657Z,32.15
2023-05-12T15:02:22.872Z,32.45
2023-05-12T15:04:51.282Z,32.28
2023-05-12T15:07:24.026Z,31.60
2023-05-12T15:09:52.280Z,31.54
2023-05-12T15:12:20.620Z,32.12
2023-05-12T15:14:48.737Z,29.99
2023-05-12T15:17:18.309Z,29.44
2023-05-12T15:19:46.561Z,30.16
2023-05-12T15:22:14.929Z,31.14
2023-05-12T15:24:44.137Z,32.35
2023-05-12T15:27:12.225Z,32.65
2023-05-12T15:29:40.511Z,34.32
2023-05-12T15:32:09.171Z,36.21
2023-05-12T15:34:39.197Z,37.58
2023-05-12T15:37:07.274Z,37.54
2023-05-12T15:39:35.496Z,36.96
2023-05-12T15:42:05.512Z,37.94
2023-05-12T15:44:35.256Z,36.71
2023-05-12T15:47:03.416Z,35.13
2023-05-12T15:49:31.906Z,32.78
2023-05-12T15:52:02.590Z,32.58
2023-05-12T15:54:31.127Z,32.84
2023-05-12T15:56:59.309Z,31.78
2023-05-12T15:59:27.479Z,31.99
2023-05-12T16:01:55.398Z,31.37
2023-05-12T16:04:24.433Z,30.07
2023-05-12T16:06:52.428Z,31.00
2023-05-12T16:09:21.804Z,30.38
2023-05-12T16:11:50.528Z,29.96
2023-05-12T16:14:19.284Z,29.43
2023-05-12T16:16:48.398Z,29.63
2023-05-12T16:19:16.521Z,29.69
2023-05-12T16:21:45.517Z,30.66
2023-05-12T16:24:13.844Z,30.28
2023-05-12T16:26:43.704Z,32.34
2023-05-12T16:29:12.028Z,34.30
2023-05-12T16:31:40.276Z,36.39
2023-05-12T16:34:08.398Z,37.24
2023-05-12T16:36:36.318Z,36.50
2023-05-12T16:39:04.744Z,36.43
2023-05-12T16:41:32.719Z,35.31
2023-05-12T16:44:02.423Z,35.16
2023-05-12T16:46:30.602Z,33.74
2023-05-12T16:48:58.619Z,31.78
2023-05-12T16:51:30.560Z,31.67
2023-05-12T16:53:58.915Z,31.57
2023-05-12T16:56:28.140Z,32.77
2023-05-12T16:58:56.271Z,31.21
2023-05-12T17:01:25.716Z,30.92
2023-05-12T17:03:55.145Z,30.42
2023-05-12T17:06:23.270Z,30.18
2023-05-12T17:08:51.467Z,29.44
2023-05-12T17:11:19.786Z,29.58
2023-05-12T17:13:48.057Z,28.86
2023-05-12T17:16:16.113Z,28.74
2023-05-12T17:21:17.459Z,29.30
2023-05-12T17:23:45.874Z,28.82
2023-05-12T17:26:16.623Z,28.59
2023-05-12T17:28:45.066Z,28.58
2023-05-12T17:31:13.159Z,28.73
2023-05-12T17:33:41.400Z,29.20
2023-05-12T17:36:13.196Z,28.96
2023-05-12T17:38:43.548Z,28.61
2023-05-12T17:41:11.664Z,28.70
2023-05-12T17:43:39.737Z,28.60
2023-05-12T17:46:08.446Z,28.54
2023-05-12T17:48:38.418Z,28.95
2023-05-12T17:51:07.575Z,28.45
2023-05-12T17:53:37.661Z,28.03
2023-05-12T17:56:06.179Z,27.76
2023-05-12T17:58:34.342Z,27.87
2023-05-12T18:01:03.421Z,28.30
2023-05-12T18:03:32.078Z,28.40
2023-05-12T18:06:00.424Z,27.57
2023-05-12T18:08:29.767Z,27.73
2023-05-12T18:10:59.395Z,28.27
2023-05-12T18:13:29.053Z,27.53
2023-05-12T18:15:57.666Z,28.03
2023-05-12T18:18:26.542Z,28.56
2023-05-12T18:20:54.754Z,27.78
2023-05-12T18:23:22.789Z,27.73
2023-05-12T18:25:51.108Z,28.69
2023-05-12T18:28:20.692Z,27.82
2023-05-12T18:30:49.021Z,28.00
2023-05-12T18:33:17.098Z,28.50
2023-05-12T18:35:45.370Z,27.92
2023-05-12T18:38:13.326Z,27.85
2023-05-12T18:40:42.050Z,27.96
2023-05-12T18:43:10.229Z,27.74
2023-05-12T18:45:39.939Z,27.68
2023-05-12T18:48:08.298Z,27.19
2023-05-12T18:50:36.401Z,27.47
2023-05-12T18:53:07.025Z,27.70
2023-05-12T18:55:35.141Z,27.93
2023-05-12T18:58:03.918Z,27.57
2023-05-12T19:00:33.900Z,27.63
2023-05-12T19:03:03.553Z,27.61
2023-05-12T19:05:31.769Z,27.77
2023-05-12T19:08:00.384Z,27.47
2023-05-12T19:10:29.188Z,27.55
2023-05-12T19:12:57.623Z,27.28
2023-05-12T19:15:25.847Z,26.90
2023-05-12T19:17:54.085Z,27.28
2023-05-12T19:20:24.020Z,26.80
2023-05-12T19:22:51.932Z,27.06
2023-05-12T19:25:20.789Z,26.88
2023-05-12T19:27:49.088Z,26.89
2023-05-12T19:30:17.147Z,26.94
2023-05-12T19:32:45.993Z,27.05
2023-05-12T19:35:15.659Z,26.91
2023-05-12T19:37:45.339Z,27.04
2023-05-12T19:40:13.598Z,27.09
2023-05-12T19:42:42.624Z,26.37
2023-05-12T19:45:11.844Z,26.86
2023-05-12T19:47:39.897Z,26.19
2023-05-12T19:50:09.295Z,26.91
2023-05-12T19:52:39.322Z,26.37
2023-05-12T19:55:09.727Z,26.60
2023-05-12T19:57:38.250Z,26.27
2023-05-12T20:00:08.133Z,26.53
2023-05-12T20:02:42.449Z,26.39
2023-05-12T20:05:11.166Z,26.40
2023-05-12T20:07:39.097Z,26.21
2023-05-12T20:10:09.918Z,26.19
2023-05-12T20:12:38.170Z,25.75
2023-05-12T20:15:06.808Z,25.58
2023-05-12T20:17:34.688Z,25.84
2023-05-12T20:20:04.135Z,25.78
2023-05-12T20:22:32.177Z,25.46
2023-05-12T20:25:04.383Z,25.82
2023-05-12T20:27:34.038Z,25.48
2023-05-12T20:30:02.442Z,25.68
2023-05-12T20:32:30.946Z,25.75
2023-05-12T20:34:58.864Z,25.61
2023-05-12T20:37:27.341Z,25.72
2023-05-12T20:39:55.631Z,25.58
2023-05-12T20:42:23.708Z,25.28
2023-05-12T20:44:53.783Z,25.20
2023-05-12T20:47:21.889Z,25.25
2023-05-12T20:49:50.005Z,25.43
2023-05-12T20:52:17.841Z,25.83
2023-05-12T20:54:45.702Z,25.79
2023-05-12T20:57:13.670Z,25.60
2023-05-12T20:59:41.727Z,25.20
2023-05-12T21:02:11.098Z,24.76
2023-05-12T21:04:39.141Z,24.76
2023-05-12T21:07:07.402Z,24.75
2023-05-12T21:09:35.535Z,24.45
2023-05-12T21:12:03.420Z,24.66
2023-05-12T21:14:31.853Z,24.18
2023-05-12T21:16:59.842Z,23.70
2023-05-12T21:19:29.187Z,23.94
2023-05-12T21:21:57.092Z,23.96
2023-05-12T21:24:24.914Z,23.75
2023-05-12T21:26:52.769Z,23.95
2023-05-12T21:29:20.662Z,23.89
2023-05-12T21:31:48.594Z,23.65
2023-05-12T21:34:16.569Z,23.58
2023-05-12T21:36:45.990Z,23.97
2023-05-12T21:39:13.894Z,23.81
2023-05-12T21:41:41.747Z,24.42
2023-05-12T21:44:11.215Z,24.51
2023-05-12T21:46:39.510Z,24.03
2023-05-12T21:49:07.573Z,23.50
2023-05-12T21:51:35.535Z,23.48
2023-05-12T21:54:05.222Z,24.09
2023-05-12T21:56:33.091Z,24.10
2023-05-12T21:59:01.517Z,23.87
2023-05-12T22:01:30.795Z,24.02
2023-05-12T22:03:59.629Z,23.73
2023-05-12T22:06:27.476Z,23.72
2023-05-12T22:08:55.709Z,23.45
2023-05-12T22:11:24.967Z,23.89
2023-05-12T22:13:52.803Z,23.74
2023-05-12T22:16:25.742Z,23.01
2023-05-12T22:18:57.004Z,23.19
2023-05-12T22:21:24.960Z,23.16
2023-05-12T22:23:52.823Z,23.22
2023-05-12T22:26:20.696Z,22.83
2023-05-12T22:28:49.907Z,23.13
2023-05-12T22:31:17.948Z,22.56
2023-05-12T22:33:45.798Z,22.90
2023-05-12T22:36:13.690Z,23.05
2023-05-12T22:38:41.607Z,22.97
2023-05-12T22:41:09.426Z,22.79
2023-05-12T22:43:37.445Z,22.83
2023-05-12T22:46:09.418Z,22.99
2023-05-12T22:48:39.584Z,22.59
2023-05-12T22:51:07.906Z,22.77
2023-05-12T22:53:36.560Z,23.06
2023-05-12T22:56:04.913Z,22.93
2023-05-12T22:58:32.793Z,22.92
2023-05-12T23:01:02.188Z,23.39
2023-05-12T23:03:32.851Z,23.16
2023-05-12T23:06:00.890Z,22.84
2023-05-12T23:08:28.938Z,23.48
2023-05-12T23:10:56.784Z,23.26
2023-05-12T23:13:24.620Z,22.92
2023-05-12T23:15:52.554Z,23.46
2023-05-12T23:18:20.598Z,23.05
2023-05-12T23:20:49.844Z,22.31
2023-05-12T23:23:17.628Z,21.99
2023-05-12T23:25:47.174Z,22.09
2023-05-12T23:28:14.981Z,22.02
2023-05-12T23:30:42.949Z,22.08
2023-05-12T23:33:11.585Z,21.63
2023-05-12T23:35:39.473Z,21.79
2023-05-12T23:38:08.804Z,22.04
2023-05-12T23:40:39.120Z,22.14
2023-05-12T23:43:07.714Z,22.15
2023-05-12T23:45:36.025Z,22.44
2023-05-12T23:48:03.862Z,21.88
2023-05-12T23:50:31.860Z,21.61
2023-05-12T23:52:59.661Z,22.12
2023-05-12T23:55:28.966Z,22.13
2023-05-12T23:57:57.050Z,21.71
